Archiv-/Tagesdaten

--Timestamp---	Temp	Chill	HIndex	Humid	Dewpt	Wind	HiWind	WindDir	Rain	Barom	Solar	ET	UV
--------------	----	-----	------	-----	-----	----	------	-------	----	-----	-----	--	--
20071003 00:05	14.6	14.6	14.6	92	13.3	0	0	135	0.00	1017.850	0	0.000	0
20071003 00:10	14.6	14.6	14.6	92	13.3	0	2	135	0.00	1017.850	0	0.000	0
20071003 00:15	14.6	14.6	14.6	92	13.3	0	0	135	0.00	1017.884	0	0.000	0
20071003 00:20	14.5	14.5	14.5	92	13.2	0	0	135	0.00	1017.951	0	0.000	0
20071003 00:25	14.6	14.6	14.6	92	13.3	0	0	135	0.00	1017.884	0	0.000	0
20071003 00:30	14.6	14.6	14.6	92	13.3	0	0	135	0.00	1017.951	0	0.000	0
20071003 00:35	14.6	14.6	14.6	92	13.3	0	0	135	0.00	1018.019	0	0.000	0
20071003 00:40	14.6	14.6	14.6	92	13.3	0	0	135	0.00	1017.951	0	0.000	0
20071003 00:45	14.6	14.6	14.6	92	13.3	0	0	135	0.00	1017.917	0	0.000	0
20071003 00:50	14.6	14.6	14.6	92	13.3	0	0	135	0.00	1017.917	0	0.000	0
20071003 00:55	14.6	14.6	14.6	92	13.3	0	0	135	0.00	1017.850	0	0.000	0
20071003 01:00	14.6	14.6	14.6	92	13.3	0	0	135	0.00	1017.917	0	0.000	0
20071003 01:05	14.6	14.6	14.6	92	13.3	0	0	135	0.00	1017.884	0	0.000	0
20071003 01:10	14.5	14.5	14.5	92	13.2	0	0	135	0.00	1017.917	0	0.000	0
20071003 01:15	14.5	14.5	14.5	92	13.2	0	0	135	0.00	1017.884	0	0.000	0
20071003 01:20	14.6	14.6	14.6	92	13.3	0	0	135	0.00	1017.917	0	0.000	0
20071003 01:25	14.6	14.6	14.6	92	13.3	0	2	135	0.00	1017.951	0	0.000	0
20071003 01:30	14.6	14.6	14.6	92	13.3	0	0	135	0.00	1017.985	0	0.000	0
20071003 01:35	14.6	14.6	14.6	92	13.3	0	0	135	0.00	1018.019	0	0.000	0
20071003 01:40	14.6	14.6	14.6	92	13.3	0	0	135	0.00	1018.121	0	0.000	0
20071003 01:45	14.6	14.6	14.6	92	13.3	0	0	135	0.00	1018.188	0	0.000	0
20071003 01:50	14.6	14.6	14.6	92	13.3	0	2	135	0.00	1018.053	0	0.000	0
20071003 01:55	14.5	14.5	14.5	92	13.2	0	2	135	0.00	1018.121	0	0.000	0
20071003 02:00	14.5	14.5	14.5	92	13.2	0	0	135	0.00	1018.188	0	0.000	0
20071003 02:05	14.4	14.4	14.4	92	13.2	0	0	135	0.00	1018.222	0	0.000	0
20071003 02:10	14.4	14.4	14.4	92	13.1	0	3	135	0.00	1018.392	0	0.000	0
20071003 02:15	14.4	14.4	14.4	92	13.1	0	3	135	0.00	1018.290	0	0.000	0
20071003 02:20	14.4	14.4	14.4	93	13.3	0	3	135	0.00	1018.121	0	0.000	0
20071003 02:25	14.5	14.5	14.5	93	13.4	0	0	135	0.20	1018.019	0	0.000	0
20071003 02:30	14.5	14.5	14.5	93	13.4	0	2	135	0.00	1018.019	0	0.000	0
20071003 02:35	14.6	14.6	14.6	93	13.4	0	2	135	0.00	1018.019	0	0.000	0
20071003 02:40	14.6	14.6	14.6	93	13.4	0	0	135	0.00	1017.951	0	0.000	0
20071003 02:45	14.4	14.4	14.4	93	13.3	0	2	135	0.00	1017.884	0	0.000	0
20071003 02:50	14.4	14.4	14.4	93	13.3	0	2	135	0.00	1017.850	0	0.000	0
20071003 02:55	14.3	14.3	14.3	93	13.2	0	2	135	0.00	1017.850	0	0.000	0
20071003 03:00	14.3	14.3	14.3	93	13.2	0	0	135	0.00	1017.884	0	0.000	0
20071003 03:05	14.3	14.3	14.3	93	13.2	0	2	135	0.00	1017.917	0	0.000	0
20071003 03:10	14.2	14.2	14.2	93	13.1	0	0	135	0.00	1017.917	0	0.000	0
20071003 03:15	14.2	14.2	14.2	93	13.1	0	0	135	0.00	1017.951	0	0.000	0
20071003 03:20	14.2	14.2	14.2	93	13.0	0	0	135	0.00	1017.951	0	0.000	0
20071003 03:25	14.1	14.1	14.1	93	12.9	0	3	135	0.00	1018.053	0	0.000	0
20071003 03:30	14.0	14.0	14.0	93	12.9	0	2	135	0.00	1018.188	0	0.000	0
20071003 03:35	13.9	13.9	13.9	93	12.8	0	0	135	0.00	1018.087	0	0.000	0
20071003 03:40	13.8	13.8	13.8	93	12.7	0	0	135	0.00	1018.087	0	0.000	0
20071003 03:45	13.8	13.8	13.8	93	12.7	0	0	135	0.00	1018.053	0	0.000	0
20071003 03:50	13.8	13.8	13.8	93	12.7	0	0	135	0.00	1018.019	0	0.000	0
20071003 03:55	13.9	13.9	13.9	94	12.9	0	0	135	0.00	1018.019	0	0.000	0
20071003 04:00	13.9	13.9	13.9	94	12.9	0	2	135	0.00	1018.053	0	0.000	0
20071003 04:05	13.9	13.9	13.9	94	13.0	0	2	135	0.00	1018.019	0	0.000	0
20071003 04:10	14.0	14.0	14.0	94	13.0	0	0	135	0.00	1017.850	0	0.000	0
20071003 04:15	14.0	14.0	14.0	94	13.0	0	2	135	0.00	1017.884	0	0.000	0
20071003 04:20	14.0	14.0	14.0	94	13.0	0	3	135	0.00	1017.951	0	0.000	0
20071003 04:25	14.0	14.0	14.0	94	13.0	0	2	135	0.00	1018.053	0	0.000	0
20071003 04:30	13.9	13.9	13.9	93	12.8	0	2	135	0.00	1018.154	0	0.000	0
20071003 04:35	13.8	13.8	13.8	93	12.7	0	0	135	0.00	1018.087	0	0.000	0
20071003 04:40	13.8	13.8	13.8	93	12.7	0	0	135	0.00	1018.222	0	0.000	0
20071003 04:45	13.7	13.7	13.7	94	12.8	0	0	135	0.60	1018.019	0	0.000	0
20071003 04:50	13.8	13.8	13.8	94	12.8	0	2	135	0.00	1018.019	0	0.000	0
20071003 04:55	13.8	13.8	13.8	94	12.8	0	0	135	0.20	1018.053	0	0.000	0
20071003 05:00	13.8	13.8	13.8	94	12.8	0	0	135	0.00	1018.087	0	0.000	0
20071003 05:05	13.8	13.8	13.8	94	12.8	0	0	135	0.00	1018.154	0	0.000	0
20071003 05:10	13.7	13.7	13.7	94	12.8	0	0	135	0.00	1018.154	0	0.000	0
20071003 05:15	13.7	13.7	13.7	94	12.7	0	0	135	0.00	1018.154	0	0.000	0
20071003 05:20	13.6	13.6	13.6	94	12.7	0	0	135	0.00	1018.256	0	0.000	0
20071003 05:25	13.6	13.6	13.6	94	12.7	0	0	135	0.00	1018.256	0	0.000	0
20071003 05:30	13.6	13.6	13.6	94	12.6	0	0	135	0.00	1018.392	0	0.000	0
20071003 05:35	13.6	13.6	13.6	94	12.6	0	0	135	0.00	1018.425	0	0.000	0
20071003 05:40	13.5	13.5	13.5	94	12.6	0	0	135	0.00	1018.561	0	0.000	0
20071003 05:45	13.5	13.5	13.5	94	12.6	0	2	135	0.00	1018.561	0	0.000	0
20071003 05:50	13.4	13.4	13.4	94	12.5	0	2	135	0.00	1018.425	0	0.000	0
20071003 05:55	13.5	13.5	13.5	94	12.6	0	2	135	0.00	1018.290	0	0.000	0
20071003 06:00	13.5	13.5	13.5	94	12.6	0	0	135	0.00	1018.290	0	0.000	0
20071003 06:05	13.5	13.5	13.5	94	12.6	0	0	135	0.00	1018.358	0	0.000	0
20071003 06:10	13.5	13.5	13.5	94	12.6	0	0	135	0.00	1018.459	0	0.000	0
20071003 06:15	13.5	13.5	13.5	95	12.7	0	0	135	0.00	1018.527	0	0.000	0
20071003 06:20	13.5	13.5	13.5	95	12.7	0	0	135	0.00	1018.493	0	0.000	0
20071003 06:25	13.6	13.6	13.6	95	12.8	0	0	135	0.00	1018.459	0	0.000	0
20071003 06:30	13.6	13.6	13.6	95	12.8	0	0	135	0.00	1018.459	0	0.000	0
20071003 06:35	13.6	13.6	13.6	95	12.8	0	0	135	0.00	1018.358	0	0.000	0
20071003 06:40	13.5	13.5	13.5	94	12.6	0	0	135	0.00	1018.324	0	0.000	0
20071003 06:45	13.4	13.4	13.4	94	12.4	0	0	135	0.00	1018.324	0	0.000	0
20071003 06:50	13.4	13.4	13.4	94	12.4	0	0	135	0.00	1018.324	0	0.000	0
20071003 06:55	13.3	13.3	13.3	94	12.3	0	0	135	0.00	1018.324	0	0.000	0
20071003 07:00	13.3	13.3	13.3	94	12.3	0	0	135	0.00	1018.358	0	0.000	0
20071003 07:05	13.3	13.3	13.3	94	12.3	0	0	135	0.00	1018.459	0	0.000	0
20071003 07:10	13.2	13.2	13.2	95	12.4	0	0	135	0.00	1018.595	0	0.000	0
20071003 07:15	13.2	13.2	13.2	95	12.4	0	0	135	0.00	1018.696	0	0.000	0
20071003 07:20	13.2	13.2	13.2	95	12.4	0	0	135	0.00	1018.764	0	0.000	0
20071003 07:25	13.1	13.1	13.1	95	12.3	0	0	135	0.00	1018.730	0	0.000	0
20071003 07:30	13.2	13.2	13.2	95	12.4	0	0	135	0.00	1018.730	2	0.000	0
20071003 07:35	13.2	13.2	13.2	95	12.4	0	0	135	0.00	1018.730	6	0.000	0
20071003 07:40	13.2	13.2	13.2	95	12.4	0	0	135	0.00	1018.764	10	0.000	0
20071003 07:45	13.2	13.2	13.2	95	12.4	0	0	135	0.00	1018.899	15	0.000	0
20071003 07:50	13.2	13.2	13.2	95	12.4	2	6	180	0.00	1018.899	19	0.000	0
20071003 07:55	13.2	13.2	13.2	95	12.4	0	3	180	0.00	1018.967	19	0.000	0
20071003 08:00	13.2	13.2	13.2	95	12.4	0	5	180	0.00	1018.933	24	0.000	0
20071003 08:05	13.3	13.3	13.3	95	12.5	0	3	180	0.00	1019.035	25	0.000	0
20071003 08:10	13.3	13.3	13.3	95	12.5	0	2	180	0.00	1019.069	27	0.000	0
20071003 08:15	13.3	13.3	13.3	95	12.5	0	2	180	0.00	1019.001	34	0.000	0
20071003 08:20	13.4	13.4	13.4	95	12.6	0	2	180	0.00	1019.035	40	0.000	0
20071003 08:25	13.4	13.4	13.4	94	12.5	0	2	180	0.00	1019.035	46	0.000	0
20071003 08:30	13.5	13.5	13.5	94	12.6	0	2	180	0.00	1019.069	48	0.000	0
20071003 08:35	13.6	13.6	13.6	94	12.6	0	3	180	0.00	1019.137	60	0.000	0
20071003 08:40	13.6	13.6	13.6	94	12.7	2	8	180	0.00	1019.204	56	0.000	0
20071003 08:45	13.7	13.7	13.7	94	12.7	2	6	180	0.00	1019.170	51	0.000	0
20071003 08:50	13.7	13.7	13.7	94	12.8	0	3	180	0.00	1019.170	62	0.000	0
20071003 08:55	13.8	13.8	13.8	93	12.7	0	3	180	0.00	1019.204	69	0.000	0
20071003 09:00	13.9	13.9	13.9	93	12.8	0	3	180	0.00	1019.170	70	0.020	0
20071003 09:05	13.9	13.9	13.9	92	12.7	0	3	180	0.00	1019.103	80	0.000	0
20071003 09:10	14.1	14.1	14.1	92	12.8	0	3	180	0.00	1019.170	87	0.000	0
20071003 09:15	14.2	14.2	14.2	92	12.9	0	3	180	0.00	1019.204	91	0.000	0
20071003 09:20	14.3	14.3	14.3	92	13.0	0	5	180	0.00	1019.204	99	0.000	0
20071003 09:25	14.4	14.4	14.4	92	13.1	0	2	180	0.00	1019.204	100	0.000	0
20071003 09:30	14.5	14.5	14.5	91	13.0	0	2	180	0.00	1019.204	98	0.000	0
20071003 09:35	14.6	14.6	14.6	91	13.2	0	6	180	0.00	1019.137	96	0.000	1
20071003 09:40	14.7	14.7	14.7	89	12.9	0	3	180	0.00	1019.069	96	0.000	1
20071003 09:45	14.8	14.8	14.8	88	12.9	2	5	225	0.00	1019.069	98	0.000	1
20071003 09:50	15.0	15.0	15.0	88	13.0	2	6	225	0.00	1019.103	118	0.000	1
20071003 09:55	15.0	15.0	15.0	87	12.9	2	5	225	0.00	1019.103	115	0.000	1
20071003 10:00	15.2	15.2	15.2	87	13.0	2	8	180	0.00	1019.137	114	0.040	1
20071003 10:05	15.3	15.3	15.3	86	12.9	3	8	247	0.00	1019.103	90	0.000	1
20071003 10:10	15.3	15.3	15.3	86	13.0	3	6	225	0.00	1019.069	69	0.000	1
20071003 10:15	15.5	15.5	15.5	87	13.3	0	5	225	0.00	1019.103	69	0.000	1
20071003 10:20	15.6	15.6	15.6	85	13.1	3	10	225	0.00	1019.103	71	0.000	1
20071003 10:25	15.7	15.7	15.7	85	13.2	2	6	225	0.00	1019.069	72	0.000	1
20071003 10:30	15.9	15.9	15.9	85	13.4	0	3	225	0.00	1019.035	70	0.000	1
20071003 10:35	16.1	16.1	16.1	84	13.3	3	8	225	0.00	1019.035	69	0.000	1
20071003 10:40	16.2	16.2	16.2	85	13.7	2	6	225	0.00	1018.967	68	0.000	1
20071003 10:45	16.4	16.4	16.4	84	13.7	2	8	225	0.00	1018.832	67	0.000	1
20071003 10:50	16.6	16.6	16.6	84	13.9	0	5	225	0.00	1018.832	67	0.000	1
20071003 10:55	16.8	16.8	16.8	84	14.1	2	5	225	0.00	1018.832	66	0.000	2
20071003 11:00	17.2	17.2	17.2	81	13.9	0	5	225	0.00	1018.798	65	0.040	2
20071003 11:05	17.6	17.6	17.6	80	14.1	0	3	225	0.00	1018.764	65	0.000	2
20071003 11:10	17.7	17.7	17.7	79	14.0	0	10	225	0.00	1018.696	65	0.000	2
20071003 11:15	18.0	18.0	18.0	78	14.1	2	5	225	0.00	1018.764	65	0.000	2
20071003 11:20	18.2	18.2	18.2	76	13.9	0	8	225	0.00	1018.730	85	0.000	2
20071003 11:25	18.4	18.4	18.4	77	14.3	2	5	225	0.00	1018.696	437	0.000	2
20071003 11:30	18.8	18.8	18.8	76	14.5	0	5	225	0.00	1018.561	450	0.000	3
20071003 11:35	19.2	19.2	19.2	74	14.4	2	5	225	0.00	1018.629	462	0.000	3
20071003 11:40	19.6	19.6	19.6	73	14.6	2	6	225	0.00	1018.595	464	0.000	3
20071003 11:45	19.8	19.8	19.8	72	14.6	2	5	225	0.00	1018.392	474	0.000	3
20071003 11:50	20.0	20.0	20.0	70	14.4	2	8	225	0.00	1018.493	489	0.000	3
20071003 11:55	20.2	20.2	20.2	69	14.3	2	8	225	0.00	1018.493	502	0.000	3
20071003 12:00	20.3	20.3	20.3	67	14.0	3	8	270	0.00	1018.392	518	0.160	3
20071003 12:05	20.5	20.5	20.5	71	15.1	0	5	270	0.00	1018.425	521	0.000	3
20071003 12:10	20.8	20.8	20.8	69	14.9	2	6	270	0.00	1018.425	521	0.000	3
20071003 12:15	21.0	21.0	21.0	65	14.2	2	5	270	0.00	1018.392	535	0.000	3
20071003 12:20	21.2	21.2	21.2	67	14.8	3	8	292	0.00	1018.392	526	0.000	3
20071003 12:25	21.3	21.3	21.3	66	14.7	3	8	292	0.00	1018.324	532	0.000	3
20071003 12:30	21.4	21.4	21.4	66	14.8	2	6	292	0.00	1018.290	536	0.000	3
20071003 12:35	21.6	21.6	21.6	66	14.9	2	5	292	0.00	1018.290	525	0.000	3
20071003 12:40	21.7	21.7	21.7	66	15.0	0	5	292	0.00	1018.290	519	0.000	3
20071003 12:45	21.7	21.7	21.7	65	14.8	0	5	292	0.00	1018.290	509	0.000	3
20071003 12:50	21.8	21.8	21.8	64	14.7	0	3	292	0.00	1018.256	528	0.000	3
20071003 12:55	21.9	21.9	21.9	62	14.3	3	10	292	0.00	1018.154	554	0.000	3
20071003 13:00	21.9	21.9	21.9	63	14.6	2	5	292	0.00	1018.019	553	0.260	3
20071003 13:05	22.1	22.1	22.1	63	14.7	3	11	292	0.00	1017.917	549	0.000	3
20071003 13:10	22.2	22.2	22.2	61	14.3	3	8	270	0.00	1017.884	553	0.000	3
20071003 13:15	22.2	22.2	22.2	61	14.3	3	11	292	0.00	1017.850	532	0.000	3
20071003 13:20	22.2	22.2	22.2	62	14.5	3	14	292	0.00	1017.884	543	0.000	3
20071003 13:25	22.2	22.2	22.2	61	14.3	3	8	292	0.00	1017.748	540	0.000	3
20071003 13:30	22.2	22.2	22.2	62	14.6	2	10	292	0.00	1017.714	548	0.000	3
20071003 13:35	22.3	22.3	22.3	60	14.2	3	18	270	0.00	1017.680	535	0.000	3
20071003 13:40	22.3	22.3	22.3	61	14.4	5	13	292	0.00	1017.647	549	0.000	3
20071003 13:45	22.5	22.5	22.5	61	14.6	3	11	292	0.00	1017.680	553	0.000	3
20071003 13:50	22.4	22.4	22.4	61	14.5	2	10	22	0.00	1017.545	545	0.000	3
20071003 13:55	22.6	22.6	22.6	63	15.1	2	6	292	0.00	1017.579	536	0.000	3
20071003 14:00	22.7	22.7	22.7	59	14.3	5	11	292	0.00	1017.511	542	0.280	3
20071003 14:05	22.8	22.8	22.8	59	14.3	5	13	292	0.00	1017.477	535	0.000	3
20071003 14:10	22.9	22.9	22.9	57	13.9	5	14	292	0.00	1017.477	524	0.000	3
20071003 14:15	22.9	22.9	22.9	57	13.9	3	10	292	0.00	1017.477	532	0.000	3
20071003 14:20	23.1	23.1	23.1	59	14.7	3	10	270	0.00	1017.342	526	0.000	3
20071003 14:25	23.2	23.2	23.2	55	13.7	3	11	292	0.00	1017.376	523	0.000	3
20071003 14:30	23.3	23.3	23.3	56	14.1	3	10	270	0.00	1017.308	516	0.000	3
20071003 14:35	23.4	23.4	23.4	56	14.2	2	10	292	0.00	1017.342	511	0.000	3
20071003 14:40	23.5	23.5	23.5	56	14.2	3	11	292	0.00	1017.342	503	0.000	3
20071003 14:45	23.3	23.3	23.3	58	14.6	6	16	292	0.00	1017.206	493	0.000	2
20071003 14:50	23.2	23.2	23.2	58	14.5	5	14	292	0.00	1017.139	489	0.000	2
20071003 14:55	23.3	23.3	23.3	55	13.7	8	16	292	0.00	1017.240	482	0.000	2
20071003 15:00	23.4	23.4	23.4	57	14.4	5	11	270	0.00	1017.172	470	0.260	2
20071003 15:05	23.4	23.4	23.4	56	14.1	3	11	292	0.00	1017.376	461	0.000	2
20071003 15:10	23.4	23.4	23.4	57	14.4	5	11	292	0.00	1017.308	452	0.000	2
20071003 15:15	23.7	23.7	23.7	55	14.1	3	10	270	0.00	1017.206	448	0.000	2
20071003 15:20	23.6	23.6	23.6	56	14.3	5	11	292	0.00	1017.274	433	0.000	2
20071003 15:25	23.5	23.5	23.5	56	14.2	5	11	292	0.00	1017.308	161	0.000	2
20071003 15:30	23.2	23.2	23.2	56	13.9	6	16	292	0.00	1017.342	86	0.000	1
20071003 15:35	23.2	23.2	23.2	58	14.4	3	10	292	0.00	1017.308	64	0.000	1
20071003 15:40	23.1	23.1	23.1	57	14.1	3	11	292	0.00	1017.240	66	0.000	1
20071003 15:45	23.1	23.1	23.1	57	14.1	2	8	292	0.00	1017.172	64	0.000	1
20071003 15:50	23.1	23.1	23.1	57	14.1	5	10	270	0.00	1017.139	67	0.000	1
20071003 15:55	23.1	23.1	23.1	59	14.6	5	14	292	0.00	1017.139	70	0.000	1
20071003 16:00	23.1	23.1	23.1	58	14.4	3	8	292	0.00	1017.139	62	0.120	1
20071003 16:05	23.1	23.1	23.1	58	14.3	5	10	292	0.00	1017.037	78	0.000	1
20071003 16:10	23.1	23.1	23.1	60	14.9	2	8	292	0.00	1017.037	61	0.000	1
20071003 16:15	22.9	22.9	22.9	59	14.4	2	6	0	0.00	1016.935	59	0.000	1
20071003 16:20	22.7	22.7	22.7	60	14.5	2	6	22	0.00	1016.868	56	0.000	1
20071003 16:25	22.6	22.6	22.6	60	14.4	0	5	270	0.00	1016.766	59	0.000	1
20071003 16:30	22.7	22.7	22.7	60	14.5	0	5	270	0.00	1016.698	53	0.000	0
20071003 16:35	22.7	22.7	22.7	60	14.5	2	6	292	0.00	1016.766	51	0.000	0
20071003 16:40	22.4	22.4	22.4	60	14.3	3	6	22	0.00	1016.766	47	0.000	0
20071003 16:45	22.3	22.3	22.3	60	14.2	2	6	22	0.00	1016.834	38	0.000	0
20071003 16:50	22.2	22.2	22.2	61	14.3	0	3	22	0.00	1016.868	45	0.000	0
20071003 16:55	22.1	22.1	22.1	63	14.7	0	3	22	0.00	1016.868	54	0.000	0
20071003 17:00	22.1	22.1	22.1	62	14.4	2	5	45	0.00	1016.834	55	0.040	0
20071003 17:05	22.1	22.1	22.1	62	14.4	2	8	22	0.00	1016.834	64	0.000	0
20071003 17:10	21.9	21.9	21.9	63	14.6	3	6	22	0.00	1016.834	64	0.000	0
20071003 17:15	21.9	21.9	21.9	62	14.3	2	5	22	0.00	1016.868	61	0.000	0
20071003 17:20	21.9	21.9	21.9	63	14.6	2	5	22	0.00	1016.935	60	0.000	0
20071003 17:25	21.9	21.9	21.9	62	14.3	3	6	22	0.00	1016.901	50	0.000	0
20071003 17:30	21.8	21.8	21.8	62	14.2	2	3	22	0.00	1016.868	52	0.000	0
20071003 17:35	21.8	21.8	21.8	63	14.5	2	3	22	0.00	1016.868	43	0.000	0
20071003 17:40	21.8	21.8	21.8	64	14.7	0	3	22	0.00	1016.800	32	0.000	0
20071003 17:45	21.6	21.6	21.6	66	15.0	0	3	22	0.00	1016.698	29	0.000	0
20071003 17:50	21.4	21.4	21.4	67	15.1	2	3	22	0.00	1016.732	29	0.000	0
20071003 17:55	21.2	21.2	21.2	67	14.8	0	3	45	0.00	1016.834	25	0.000	0
20071003 18:00	21.1	21.1	21.1	69	15.2	2	3	45	0.00	1016.800	23	0.040	0
20071003 18:05	20.9	20.9	20.9	71	15.4	2	5	45	0.00	1016.732	21	0.000	0
20071003 18:10	20.6	20.6	20.6	72	15.4	0	3	45	0.00	1016.901	21	0.000	0
20071003 18:15	20.3	20.3	20.3	73	15.3	0	3	45	0.00	1016.901	21	0.000	0
20071003 18:20	20.1	20.1	20.1	74	15.3	2	5	45	0.00	1016.901	19	0.000	0
20071003 18:25	19.9	19.9	19.9	75	15.3	2	5	45	0.00	1016.969	17	0.000	0
20071003 18:30	19.7	19.7	19.7	75	15.2	3	5	45	0.00	1017.037	15	0.000	0
20071003 18:35	19.6	19.6	19.6	76	15.2	2	5	45	0.00	1017.105	12	0.000	0
20071003 18:40	19.4	19.4	19.4	77	15.2	2	3	45	0.00	1017.105	8	0.000	0
20071003 18:45	19.2	19.2	19.2	78	15.2	2	5	45	0.00	1017.172	3	0.000	0
20071003 18:50	18.9	18.9	18.9	79	15.2	0	3	67	0.00	1017.206	0	0.000	0
20071003 18:55	18.8	18.8	18.8	79	15.1	0	2	67	0.00	1017.240	0	0.000	0
20071003 19:00	18.6	18.6	18.6	80	15.1	2	5	45	0.00	1017.206	0	0.020	0
20071003 19:05	18.5	18.5	18.5	80	15.0	2	3	45	0.00	1017.443	0	0.000	0
20071003 19:10	18.4	18.4	18.4	80	14.9	2	3	45	0.00	1017.477	0	0.000	0
20071003 19:15	18.2	18.2	18.2	81	14.9	0	2	45	0.00	1017.545	0	0.000	0
20071003 19:20	18.1	18.1	18.1	81	14.7	0	3	45	0.00	1017.579	0	0.000	0
20071003 19:25	17.8	17.8	17.8	82	14.7	0	2	45	0.00	1017.579	0	0.000	0
20071003 19:30	17.7	17.7	17.7	82	14.6	2	3	45	0.00	1017.545	0	0.000	0
20071003 19:35	17.7	17.7	17.7	82	14.6	0	3	45	0.00	1017.613	0	0.000	0
20071003 19:40	17.6	17.6	17.6	82	14.5	0	3	45	0.00	1017.511	0	0.000	0
20071003 19:45	17.6	17.6	17.6	83	14.6	0	3	45	0.00	1017.477	0	0.000	0
20071003 19:50	17.4	17.4	17.4	83	14.5	0	2	67	0.00	1017.376	0	0.000	0
20071003 19:55	17.3	17.3	17.3	83	14.4	0	3	67	0.00	1017.443	0	0.000	0
20071003 20:00	17.2	17.2	17.2	84	14.5	0	3	67	0.00	1017.613	0	0.020	0
20071003 20:05	17.2	17.2	17.2	84	14.4	0	2	67	0.00	1017.477	0	0.000	0
20071003 20:10	17.1	17.1	17.1	84	14.3	0	2	67	0.00	1017.511	0	0.000	0
20071003 20:15	16.9	16.9	16.9	85	14.4	0	2	67	0.00	1017.511	0	0.000	0
20071003 20:20	16.8	16.8	16.8	85	14.3	0	2	67	0.00	1017.680	0	0.000	0
20071003 20:25	16.7	16.7	16.7	85	14.1	0	2	67	0.00	1017.782	0	0.000	0
20071003 20:30	16.5	16.5	16.5	85	14.0	0	0	67	0.00	1017.782	0	0.000	0
20071003 20:35	16.3	16.3	16.3	85	13.8	0	0	67	0.00	1017.985	0	0.000	0
20071003 20:40	16.2	16.2	16.2	87	14.0	0	0	67	0.00	1017.985	0	0.000	0
20071003 20:45	16.0	16.0	16.0	87	13.8	0	0	67	0.00	1017.917	0	0.000	0
20071003 20:50	15.8	15.8	15.8	88	13.8	0	2	67	0.00	1017.884	0	0.000	0
20071003 20:55	15.8	15.8	15.8	89	14.0	2	5	67	0.00	1018.053	0	0.000	0
20071003 21:00	15.8	15.8	15.8	89	14.0	0	0	67	0.00	1018.087	0	0.000	0
20071003 21:05	15.8	15.8	15.8	89	14.0	0	0	67	0.00	1018.154	0	0.000	0
20071003 21:10	15.7	15.7	15.7	89	13.9	0	2	67	0.00	1018.188	0	0.000	0
20071003 21:15	15.6	15.6	15.6	89	13.8	0	2	67	0.00	1018.188	0	0.000	0
20071003 21:20	15.6	15.6	15.6	89	13.7	0	0	67	0.00	1018.154	0	0.000	0
20071003 21:25	15.4	15.4	15.4	90	13.8	0	2	67	0.00	1018.087	0	0.000	0
20071003 21:30	15.4	15.4	15.4	90	13.8	0	0	67	0.00	1018.188	0	0.000	0
20071003 21:35	15.3	15.3	15.3	90	13.7	0	0	67	0.00	1018.188	0	0.000	0
20071003 21:40	15.2	15.2	15.2	90	13.6	0	2	67	0.00	1018.188	0	0.000	0
20071003 21:45	15.2	15.2	15.2	90	13.5	0	0	67	0.00	1018.222	0	0.000	0
20071003 21:50	15.1	15.1	15.1	90	13.4	0	0	67	0.00	1018.154	0	0.000	0
20071003 21:55	15.0	15.0	15.0	90	13.4	0	2	67	0.00	1018.087	0	0.000	0
20071003 22:00	15.0	15.0	15.0	91	13.5	0	3	67	0.00	1018.087	0	0.000	0
20071003 22:05	15.0	15.0	15.0	91	13.5	0	2	67	0.00	1017.884	0	0.000	0
20071003 22:10	15.0	15.0	15.0	91	13.5	0	2	67	0.00	1017.850	0	0.000	0
20071003 22:15	15.0	15.0	15.0	92	13.7	0	2	67	0.00	1017.850	0	0.000	0
20071003 22:20	15.0	15.0	15.0	92	13.7	0	2	67	0.00	1017.782	0	0.000	0
20071003 22:25	15.0	15.0	15.0	91	13.5	0	2	67	0.00	1017.816	0	0.000	0
20071003 22:30	14.9	14.9	14.9	91	13.4	0	2	67	0.00	1017.985	0	0.000	0
20071003 22:35	14.8	14.8	14.8	91	13.3	0	0	67	0.00	1017.884	0	0.000	0
20071003 22:40	14.7	14.7	14.7	91	13.2	0	0	67	0.00	1017.985	0	0.000	0
20071003 22:45	14.6	14.6	14.6	92	13.3	0	0	67	0.00	1017.884	0	0.000	0
20071003 22:50	14.5	14.5	14.5	92	13.2	0	0	67	0.00	1017.884	0	0.000	0
20071003 22:55	14.4	14.4	14.4	91	13.0	0	0	67	0.00	1017.782	0	0.000	0
20071003 23:00	14.3	14.3	14.3	92	13.0	0	0	67	0.00	1017.884	0	0.000	0
20071003 23:05	14.3	14.3	14.3	92	13.0	0	0	67	0.00	1017.579	0	0.000	0
20071003 23:10	14.2	14.2	14.2	92	12.9	0	0	67	0.00	1017.680	0	0.000	0
20071003 23:15	14.1	14.1	14.1	92	12.8	0	0	67	0.00	1017.647	0	0.000	0
20071003 23:20	14.0	14.0	14.0	92	12.7	0	0	67	0.00	1017.680	0	0.000	0
20071003 23:25	13.9	13.9	13.9	92	12.7	0	0	67	0.00	1017.748	0	0.000	0
20071003 23:30	13.9	13.9	13.9	92	12.6	0	0	67	0.00	1017.816	0	0.000	0
20071003 23:35	13.8	13.8	13.8	92	12.6	0	0	67	0.00	1017.850	0	0.000	0
20071003 23:40	13.8	13.8	13.8	92	12.5	0	0	67	0.00	1017.850	0	0.000	0
20071003 23:45	13.7	13.7	13.7	92	12.4	0	0	67	0.00	1017.850	0	0.000	0
20071003 23:50	13.7	13.7	13.7	92	12.4	0	2	67	0.00	1017.951	0	0.000	0
20071003 23:55	13.7	13.7	13.7	93	12.6	0	2	67	0.00	1018.087	0	0.000	0
20071003 24:00	13.7	13.7	13.7	93	12.6	0	0	67	0.00	1018.188	0	0.000	0



Please note the license to use and transfer of this data:
http://creativecommons.org/licenses/by-nc-sa/3.0/deed.en

Bitte beachten sie die Lizenz zur Verwertung und Weitergabe der Daten:
http://creativecommons.org/licenses/by-nc-sa/3.0/deed.de

zurück zur Übersicht der Archivdaten (Monats und Tagesdaten)

Cookies helfen bei der Bereitstellung von Inhalten. Durch die Nutzung dieser Seiten erklärst du dich damit einverstanden, dass Cookies auf deinem Rechner gespeichert werden. Weitere Information